Time;durP1;ratioP1;P1;durP2;ratioP2;P2;SDS_P1;SDS_P2;PMS_P1;PMS_P2;Temp;Humidity;BMP_temperature;BMP_pressure;BME280_temperature;BME280_humidity;BME280_pressure;Samples;Min_cycle;Max_cycle;Signal;HPM_P1;HPM_P2
2023/12/20 00:01:36;;;;;;;9.48;8.05;;;6.90;99.90;;;;;;5072662;28;20236;-62
2023/12/20 00:04:03;;;;;;;7.63;5.90;;;6.90;99.90;;;;;;5072988;28;20220;-62
2023/12/20 00:06:32;;;;;;;9.95;7.35;;;6.90;99.90;;;;;;5072921;28;20239;-63
2023/12/20 00:08:58;;;;;;;9.90;7.30;;;6.80;99.90;;;;;;5072443;28;20197;-63
2023/12/20 00:11:25;;;;;;;12.27;7.25;;;6.80;99.90;;;;;;5072748;28;20244;-64
2023/12/20 00:13:52;;;;;;;11.65;7.10;;;6.80;99.90;;;;;;5072583;28;20682;-62
2023/12/20 00:16:19;;;;;;;10.88;7.13;;;6.70;99.90;;;;;;5072700;28;20209;-63
2023/12/20 00:18:46;;;;;;;9.85;6.45;;;6.70;99.90;;;;;;5072871;28;20240;-64
2023/12/20 00:21:13;;;;;;;10.05;6.88;;;6.70;99.90;;;;;;5072879;28;20220;-62
2023/12/20 00:23:41;;;;;;;13.43;7.20;;;6.60;99.90;;;;;;5072742;28;20207;-62
2023/12/20 00:26:07;;;;;;;8.75;5.72;;;6.60;99.90;;;;;;5072476;28;20197;-63
2023/12/20 00:28:34;;;;;;;7.10;5.50;;;6.60;99.90;;;;;;5074800;28;20203;-63
2023/12/20 00:31:01;;;;;;;8.70;6.10;;;6.60;99.90;;;;;;5076562;28;20220;-63
2023/12/20 00:33:28;;;;;;;9.65;5.50;;;6.50;99.90;;;;;;5076255;28;20651;-63
2023/12/20 00:35:55;;;;;;;8.45;5.65;;;6.50;99.90;;;;;;5076544;28;20205;-63
2023/12/20 00:38:22;;;;;;;10.40;5.35;;;6.50;99.90;;;;;;5076406;28;20586;-63
2023/12/20 00:40:50;;;;;;;6.50;4.80;;;6.40;99.90;;;;;;5076415;28;20292;-63
2023/12/20 00:43:17;;;;;;;13.25;5.18;;;6.40;99.90;;;;;;5076419;28;20197;-63
2023/12/20 00:45:44;;;;;;;11.02;5.15;;;6.40;99.90;;;;;;5076436;28;20196;-63
2023/12/20 00:48:10;;;;;;;14.30;6.35;;;6.40;99.90;;;;;;5076400;28;20197;-63
2023/12/20 00:50:37;;;;;;;10.90;7.13;;;6.40;99.90;;;;;;5076295;28;20197;-63
2023/12/20 00:53:05;;;;;;;9.18;5.35;;;6.40;99.90;;;;;;5076300;28;20201;-63
2023/12/20 00:55:32;;;;;;;9.13;4.55;;;6.40;99.90;;;;;;5075860;28;20711;-63
2023/12/20 00:58:00;;;;;;;16.75;4.60;;;6.40;99.90;;;;;;5075735;28;20724;-63
2023/12/20 01:00:27;;;;;;;14.65;5.82;;;6.40;99.90;;;;;;5075999;28;20204;-63
2023/12/20 01:02:54;;;;;;;7.20;3.60;;;6.30;99.90;;;;;;5075424;28;20745;-60
2023/12/20 01:05:22;;;;;;;9.98;3.40;;;6.30;99.90;;;;;;5075605;28;20697;-63
2023/12/20 01:07:49;;;;;;;6.95;3.55;;;6.30;99.90;;;;;;5075863;28;20634;-63
2023/12/20 01:10:17;;;;;;;9.80;2.85;;;6.20;99.90;;;;;;5075623;28;20694;-63
2023/12/20 01:12:44;;;;;;;8.18;3.75;;;6.20;99.90;;;;;;5075833;28;20217;-62
2023/12/20 01:15:13;;;;;;;8.95;3.72;;;6.20;99.90;;;;;;5075497;28;20207;-63
2023/12/20 01:17:39;;;;;;;7.13;2.83;;;6.20;99.90;;;;;;5075644;28;20227;-63
2023/12/20 01:20:08;;;;;;;7.80;3.17;;;6.20;99.90;;;;;;5075974;28;20201;-62
2023/12/20 01:22:35;;;;;;;9.27;3.95;;;6.10;99.90;;;;;;5075831;28;20666;-63
2023/12/20 01:25:03;;;;;;;8.98;3.15;;;6.10;99.90;;;;;;5075944;28;20622;-62
2023/12/20 01:27:30;;;;;;;12.02;2.65;;;6.10;99.90;;;;;;5075886;28;20197;-63
2023/12/20 01:29:57;;;;;;;5.15;2.92;;;6.20;99.90;;;;;;5075573;28;20300;-62
2023/12/20 01:32:25;;;;;;;8.30;3.00;;;6.20;99.90;;;;;;5075744;28;20227;-62
2023/12/20 01:34:52;;;;;;;7.70;3.00;;;6.20;99.90;;;;;;5075900;28;20211;-62
2023/12/20 01:37:19;;;;;;;11.07;3.50;;;6.20;99.90;;;;;;5075450;28;20772;-63
2023/12/20 01:39:46;;;;;;;10.80;3.00;;;6.20;99.90;;;;;;5074880;28;20573;-61
2023/12/20 01:42:12;;;;;;;3.20;2.40;;;6.30;99.90;;;;;;5075044;28;20714;-63
2023/12/20 01:44:39;;;;;;;5.82;2.45;;;6.30;99.90;;;;;;5075487;28;20208;-62
2023/12/20 01:47:06;;;;;;;17.60;3.13;;;6.30;99.90;;;;;;5075491;28;20208;-63
2023/12/20 01:49:34;;;;;;;7.00;2.95;;;6.30;99.90;;;;;;5075256;28;20578;-63
2023/12/20 01:52:01;;;;;;;6.43;3.10;;;6.30;99.90;;;;;;5075251;28;20218;-63
2023/12/20 01:54:28;;;;;;;6.05;2.40;;;6.30;99.90;;;;;;5075218;28;20581;-63
2023/12/20 01:56:55;;;;;;;5.45;2.38;;;6.10;99.90;;;;;;5075619;28;20209;-62
2023/12/20 01:59:22;;;;;;;7.05;2.42;;;6.10;99.90;;;;;;5075686;28;20228;-62
2023/12/20 02:01:49;;;;;;;9.75;2.30;;;6.00;99.90;;;;;;5076111;28;20228;-62
2023/12/20 02:04:16;;;;;;;8.35;2.58;;;6.00;99.90;;;;;;5074957;28;20670;-61
2023/12/20 02:06:47;;;;;;;6.43;2.83;;;6.00;99.90;;;;;;5076249;28;20197;-62
2023/12/20 02:09:13;;;;;;;8.98;2.78;;;6.00;99.90;;;;;;5077181;28;20181;-62
2023/12/20 02:11:41;;;;;;;12.00;3.15;;;6.00;99.90;;;;;;5076742;28;20710;-63
2023/12/20 02:14:08;;;;;;;5.72;2.40;;;6.00;99.90;;;;;;5075467;28;20552;-63
2023/12/20 02:16:34;;;;;;;8.60;2.75;;;6.00;99.90;;;;;;5074944;28;20196;-62
2023/12/20 02:19:01;;;;;;;6.25;2.63;;;6.00;99.90;;;;;;5074585;28;20223;-62
2023/12/20 02:21:34;;;;;;;5.40;2.42;;;6.00;99.90;;;;;;5074318;28;20221;-62
2023/12/20 02:24:01;;;;;;;4.68;2.20;;;6.00;99.90;;;;;;5074765;28;20186;-63
2023/12/20 02:26:28;;;;;;;8.20;2.42;;;6.00;99.90;;;;;;5074387;28;20209;-62
2023/12/20 02:28:55;;;;;;;7.35;2.70;;;5.90;99.90;;;;;;5074769;28;20197;-62
2023/12/20 02:31:23;;;;;;;11.00;2.70;;;6.00;99.90;;;;;;5074303;28;20729;-63
2023/12/20 02:33:50;;;;;;;7.28;3.08;;;5.90;99.90;;;;;;5074450;28;20254;-62
2023/12/20 02:36:16;;;;;;;6.68;2.45;;;5.90;99.90;;;;;;5074508;28;20258;-62
2023/12/20 02:38:44;;;;;;;6.07;2.50;;;5.90;99.90;;;;;;5074464;28;20227;-63
2023/12/20 02:41:11;;;;;;;8.60;3.10;;;5.90;99.90;;;;;;5074443;28;20221;-62
2023/12/20 02:43:38;;;;;;;8.05;3.10;;;5.90;99.90;;;;;;5074638;28;20204;-62
2023/12/20 02:46:05;;;;;;;6.32;3.22;;;5.80;99.90;;;;;;5074281;28;20296;-62
2023/12/20 02:48:32;;;;;;;7.63;3.50;;;5.80;99.90;;;;;;5074360;28;20229;-62
2023/12/20 02:50:58;;;;;;;7.68;3.25;;;5.80;99.90;;;;;;5073496;28;20224;-62
2023/12/20 02:53:25;;;;;;;6.70;3.35;;;5.80;99.90;;;;;;5073874;28;20219;-62
2023/12/20 02:55:53;;;;;;;7.82;3.95;;;5.70;99.90;;;;;;5074136;28;20201;-63
2023/12/20 02:58:20;;;;;;;6.50;2.72;;;5.70;99.90;;;;;;5074191;28;20221;-62
2023/12/20 03:00:47;;;;;;;4.90;3.00;;;5.60;99.90;;;;;;5074619;28;20200;-63
2023/12/20 03:03:13;;;;;;;6.55;2.80;;;5.60;99.90;;;;;;5074461;28;20212;-62
2023/12/20 03:05:40;;;;;;;11.95;3.38;;;5.60;99.90;;;;;;5074016;28;20197;-61
2023/12/20 03:08:07;;;;;;;5.32;2.28;;;5.60;99.90;;;;;;5074244;28;20205;-62
2023/12/20 03:10:34;;;;;;;5.28;2.10;;;5.50;99.90;;;;;;5074298;28;20200;-62
2023/12/20 03:13:02;;;;;;;8.70;2.75;;;5.50;99.90;;;;;;5073756;28;20311;-62
2023/12/20 03:15:29;;;;;;;5.20;2.13;;;5.50;99.90;;;;;;5073499;28;20201;-62
2023/12/20 03:17:56;;;;;;;9.18;2.65;;;5.50;99.90;;;;;;5073662;28;20655;-62
2023/12/20 03:20:22;;;;;;;3.42;1.92;;;5.40;99.90;;;;;;5073653;28;20205;-62
2023/12/20 03:22:49;;;;;;;7.03;2.38;;;5.40;99.90;;;;;;5073544;28;20243;-62
2023/12/20 03:25:16;;;;;;;10.95;2.30;;;5.40;99.90;;;;;;5073603;28;20596;-62
2023/12/20 03:27:43;;;;;;;3.63;1.70;;;5.40;99.90;;;;;;5073252;28;20207;-62
2023/12/20 03:30:11;;;;;;;4.38;1.95;;;5.40;99.90;;;;;;5073068;28;20201;-62
2023/12/20 03:32:39;;;;;;;7.43;2.03;;;5.30;99.90;;;;;;5073297;28;20221;-62
2023/12/20 03:35:07;;;;;;;5.35;1.88;;;5.30;99.90;;;;;;5073875;28;20212;-62
2023/12/20 03:37:33;;;;;;;6.20;1.65;;;5.30;99.90;;;;;;5073448;28;20201;-63
2023/12/20 03:40:00;;;;;;;6.03;1.90;;;5.30;99.90;;;;;;5073339;28;20225;-61
2023/12/20 03:42:27;;;;;;;4.22;1.83;;;5.20;99.90;;;;;;5073127;28;20583;-62
2023/12/20 03:44:54;;;;;;;6.32;1.50;;;5.30;99.90;;;;;;5073392;28;20574;-62
2023/12/20 03:47:22;;;;;;;5.68;1.63;;;5.30;99.90;;;;;;5073203;28;20212;-62
2023/12/20 03:49:49;;;;;;;5.28;1.80;;;5.30;99.90;;;;;;5073527;28;20197;-64
2023/12/20 03:52:16;;;;;;;5.68;1.40;;;5.30;99.90;;;;;;5073777;28;20217;-60
2023/12/20 03:54:43;;;;;;;5.40;1.83;;;5.40;99.90;;;;;;5073550;28;20207;-61
2023/12/20 03:57:10;;;;;;;7.38;3.38;;;5.40;99.90;;;;;;5073648;28;20208;-63
2023/12/20 03:59:38;;;;;;;3.97;1.25;;;5.40;99.90;;;;;;5072570;28;20220;-61
2023/12/20 04:02:05;;;;;;;6.70;1.42;;;5.40;99.90;;;;;;5072584;28;20235;-63
2023/12/20 04:04:33;;;;;;;6.45;1.90;;;5.40;99.90;;;;;;5072543;28;20785;-62
2023/12/20 04:07:00;;;;;;;6.38;1.80;;;5.50;99.90;;;;;;5073992;28;20225;-62
2023/12/20 04:12:47;;;;;;;11.13;1.80;;;5.50;99.90;;;;;;5091320;28;20617;-63
2023/12/20 04:15:14;;;;;;;6.50;1.70;;;5.60;99.90;;;;;;5090453;28;20211;-64
2023/12/20 04:17:41;;;;;;;2.17;1.20;;;5.60;99.90;;;;;;5090993;28;20559;-63
2023/12/20 04:20:09;;;;;;;9.02;1.52;;;5.60;99.90;;;;;;5090838;28;20693;-61
2023/12/20 04:22:35;;;;;;;4.55;2.05;;;5.60;99.90;;;;;;5090340;28;20220;-63
2023/12/20 04:25:02;;;;;;;6.75;2.03;;;5.60;99.90;;;;;;5091326;28;20196;-63
2023/12/20 04:27:29;;;;;;;6.10;2.00;;;5.60;99.90;;;;;;5090357;28;20266;-63
2023/12/20 04:29:57;;;;;;;8.23;2.30;;;5.60;99.90;;;;;;5090287;28;20200;-63
2023/12/20 04:32:24;;;;;;;6.13;2.15;;;5.70;99.90;;;;;;5090228;28;20228;-64
2023/12/20 04:34:51;;;;;;;5.45;2.40;;;5.70;99.90;;;;;;5090182;28;20210;-64
2023/12/20 04:37:18;;;;;;;6.03;2.80;;;5.70;99.90;;;;;;5090586;28;20196;-64
2023/12/20 04:39:44;;;;;;;8.88;2.92;;;5.80;99.90;;;;;;5090782;28;20232;-64
2023/12/20 04:42:11;;;;;;;8.10;2.53;;;5.80;99.90;;;;;;5090270;28;20274;-62
2023/12/20 04:44:38;;;;;;;7.10;2.50;;;5.80;99.90;;;;;;5090500;28;20205;-63
2023/12/20 04:47:06;;;;;;;12.48;3.60;;;5.90;99.90;;;;;;5090371;28;20215;-64
2023/12/20 04:49:33;;;;;;;5.35;2.42;;;5.90;99.90;;;;;;5090279;28;20204;-63
2023/12/20 04:52:00;;;;;;;8.80;2.80;;;5.90;99.90;;;;;;5089920;28;20227;-63
2023/12/20 04:54:26;;;;;;;5.85;2.70;;;5.90;99.90;;;;;;5089751;28;20291;-63
2023/12/20 04:56:53;;;;;;;11.43;4.18;;;5.90;99.90;;;;;;5089975;28;20200;-63
2023/12/20 04:59:20;;;;;;;8.10;2.92;;;5.90;99.90;;;;;;5089911;28;20200;-62
2023/12/20 05:01:47;;;;;;;4.35;2.22;;;6.00;99.90;;;;;;5106043;22;20230;-64
2023/12/20 05:04:15;;;;;;;9.18;2.30;;;6.00;99.90;;;;;;5050205;28;20209;-64
2023/12/20 05:06:41;;;;;;;6.50;2.40;;;6.00;99.90;;;;;;5049453;28;20745;-63
2023/12/20 05:09:09;;;;;;;6.43;3.33;;;6.00;99.90;;;;;;5049680;28;20202;-61
2023/12/20 05:11:35;;;;;;;10.55;2.90;;;6.00;99.90;;;;;;5049318;28;20653;-63
2023/12/20 05:14:02;;;;;;;6.20;1.90;;;6.00;99.90;;;;;;5049690;28;20695;-63
2023/12/20 05:16:29;;;;;;;11.48;2.53;;;6.00;99.90;;;;;;5049438;28;20217;-62
2023/12/20 05:18:55;;;;;;;9.30;2.78;;;6.10;99.90;;;;;;5050351;28;20198;-63
2023/12/20 05:21:24;;;;;;;11.65;2.80;;;6.10;99.90;;;;;;5050103;28;20218;-63
2023/12/20 05:23:50;;;;;;;5.18;2.80;;;6.10;99.90;;;;;;5038858;28;20207;-63
2023/12/20 05:26:17;;;;;;;10.20;3.40;;;6.10;99.90;;;;;;5036327;28;20203;-64
2023/12/20 05:28:44;;;;;;;3.72;1.85;;;6.20;99.90;;;;;;5036740;28;20224;-64
2023/12/20 05:31:11;;;;;;;13.80;3.30;;;6.20;99.90;;;;;;5036909;28;20218;-64
2023/12/20 05:33:38;;;;;;;7.45;3.15;;;6.20;99.90;;;;;;5036893;28;20205;-64
2023/12/20 05:36:05;;;;;;;13.90;4.15;;;6.00;99.90;;;;;;5036180;28;20202;-65
2023/12/20 05:38:33;;;;;;;5.68;2.78;;;5.90;99.90;;;;;;5036518;28;20214;-64
2023/12/20 05:41:00;;;;;;;8.73;3.35;;;5.80;99.90;;;;;;5035885;28;20205;-65
2023/12/20 05:43:27;;;;;;;12.00;4.18;;;5.80;99.90;;;;;;5036225;28;20213;-64
2023/12/20 05:45:53;;;;;;;5.65;3.40;;;5.80;99.90;;;;;;5036307;28;20298;-63
2023/12/20 05:48:20;;;;;;;7.85;3.60;;;5.80;99.90;;;;;;5036234;28;20202;-64
2023/12/20 05:50:47;;;;;;;7.65;3.47;;;5.80;99.90;;;;;;5035630;28;20202;-62
2023/12/20 05:53:14;;;;;;;9.10;3.42;;;5.80;99.90;;;;;;5036712;28;20207;-64
2023/12/20 05:55:42;;;;;;;8.38;2.78;;;5.90;99.90;;;;;;5035947;28;20203;-63
2023/12/20 05:58:08;;;;;;;10.05;3.67;;;5.90;99.90;;;;;;5036115;28;20198;-64
2023/12/20 06:00:35;;;;;;;7.03;3.35;;;5.90;99.90;;;;;;5035632;28;20206;-64
2023/12/20 06:03:02;;;;;;;9.88;3.63;;;5.90;99.90;;;;;;5035625;28;20226;-63
2023/12/20 06:05:29;;;;;;;7.60;3.05;;;5.90;99.90;;;;;;5035936;28;20216;-62
2023/12/20 06:07:57;;;;;;;5.57;2.92;;;5.90;99.90;;;;;;5035594;28;20209;-64
2023/12/20 06:10:24;;;;;;;9.32;3.70;;;5.90;99.90;;;;;;5035731;28;20659;-63
2023/12/20 06:12:52;;;;;;;7.60;3.40;;;5.90;99.90;;;;;;5036510;28;20234;-64
2023/12/20 06:15:19;;;;;;;9.32;3.47;;;5.90;99.90;;;;;;5036827;28;20199;-64
2023/12/20 06:17:46;;;;;;;8.43;3.63;;;5.90;99.90;;;;;;5035471;28;20630;-64
2023/12/20 06:20:13;;;;;;;7.55;3.10;;;5.90;99.90;;;;;;5034965;28;20198;-64
2023/12/20 06:22:40;;;;;;;5.13;3.15;;;5.90;99.90;;;;;;5034944;28;20309;-64
2023/12/20 06:25:07;;;;;;;7.13;3.00;;;5.90;99.90;;;;;;5035332;28;20206;-65
2023/12/20 06:27:34;;;;;;;3.78;2.25;;;5.90;99.90;;;;;;5034685;28;20202;-65
2023/12/20 06:30:02;;;;;;;7.18;3.50;;;5.90;99.90;;;;;;5035273;28;20602;-63
2023/12/20 06:32:30;;;;;;;6.28;3.60;;;5.90;99.90;;;;;;5035683;28;20226;-64
2023/12/20 06:34:56;;;;;;;10.68;3.65;;;5.90;99.90;;;;;;5037193;28;20213;-63
2023/12/20 06:37:23;;;;;;;10.55;3.55;;;5.90;99.90;;;;;;5036138;28;20203;-64
2023/12/20 06:39:50;;;;;;;14.63;3.83;;;5.90;99.90;;;;;;5035700;28;20701;-64
2023/12/20 06:42:17;;;;;;;7.10;3.40;;;6.00;99.90;;;;;;5037722;28;20218;-63
2023/12/20 06:44:44;;;;;;;11.18;4.13;;;6.00;99.90;;;;;;5037274;28;20707;-63
2023/12/20 06:47:13;;;;;;;17.70;4.18;;;6.00;99.90;;;;;;5036343;28;20202;-65
2023/12/20 06:49:40;;;;;;;8.45;3.58;;;6.00;99.90;;;;;;5035948;28;20202;-64
2023/12/20 06:52:07;;;;;;;9.40;3.78;;;6.00;99.90;;;;;;5037685;28;20542;-63
2023/12/20 06:54:35;;;;;;;9.10;3.10;;;6.00;99.90;;;;;;5038470;28;20198;-64
2023/12/20 06:57:02;;;;;;;14.85;3.70;;;6.00;99.90;;;;;;5037419;28;20203;-64
2023/12/20 06:59:29;;;;;;;13.23;4.00;;;5.90;99.90;;;;;;5036280;28;20296;-64
2023/12/20 07:01:56;;;;;;;8.13;3.97;;;5.90;99.90;;;;;;5036076;28;20230;-62
2023/12/20 07:04:24;;;;;;;11.73;3.30;;;5.80;99.90;;;;;;5035717;28;20209;-63
2023/12/20 07:06:53;;;;;;;8.45;3.80;;;5.80;99.90;;;;;;5035487;28;20673;-63
2023/12/20 07:09:20;;;;;;;10.93;3.50;;;5.80;99.90;;;;;;5035171;28;20286;-63
2023/12/20 07:11:47;;;;;;;9.80;3.55;;;5.70;99.90;;;;;;5034220;28;20222;-63
2023/12/20 07:14:14;;;;;;;9.45;3.25;;;5.70;99.90;;;;;;5034520;28;20261;-64
2023/12/20 07:16:41;;;;;;;13.43;4.00;;;5.70;99.90;;;;;;5035877;28;20676;-63
2023/12/20 07:19:08;;;;;;;8.90;4.43;;;5.70;99.90;;;;;;5045317;28;20210;-64
2023/12/20 07:21:36;;;;;;;9.50;4.30;;;5.60;99.90;;;;;;5045449;28;20285;-64
2023/12/20 07:24:03;;;;;;;8.18;3.10;;;5.60;99.90;;;;;;5044899;28;20230;-63
2023/12/20 07:26:29;;;;;;;14.00;4.20;;;5.60;99.90;;;;;;5046093;28;20221;-63
2023/12/20 07:28:56;;;;;;;9.43;3.28;;;5.60;99.90;;;;;;5046130;28;20206;-63
2023/12/20 07:31:23;;;;;;;10.63;4.00;;;5.60;99.90;;;;;;5045653;28;20232;-62
2023/12/20 07:33:50;;;;;;;14.90;4.40;;;5.60;99.90;;;;;;5045741;28;20387;-63
2023/12/20 07:36:17;;;;;;;14.40;4.78;;;5.70;99.90;;;;;;5046247;28;20702;-64
2023/12/20 07:38:45;;;;;;;16.42;4.38;;;5.80;99.90;;;;;;5045802;28;20206;-63
2023/12/20 07:41:12;;;;;;;13.52;4.00;;;5.80;99.90;;;;;;5043905;28;20317;-63
2023/12/20 07:43:39;;;;;;;13.38;4.10;;;5.90;99.90;;;;;;5046732;28;20203;-64
2023/12/20 07:46:06;;;;;;;14.63;4.97;;;5.80;99.90;;;;;;5041989;28;20222;-65
2023/12/20 07:48:34;;;;;;;12.18;3.88;;;5.80;99.90;;;;;;5041371;28;20208;-64
2023/12/20 07:51:01;;;;;;;13.10;4.05;;;5.80;99.90;;;;;;5040486;28;20226;-65
2023/12/20 07:53:28;;;;;;;6.38;2.95;;;5.70;99.90;;;;;;5042414;28;20222;-65
2023/12/20 07:55:56;;;;;;;12.25;3.03;;;5.70;99.90;;;;;;5042785;28;20207;-65
2023/12/20 07:58:23;;;;;;;11.43;3.83;;;5.60;99.90;;;;;;5042972;28;20221;-64
2023/12/20 08:00:50;;;;;;;6.32;3.05;;;5.60;99.90;;;;;;5043713;28;20690;-65
2023/12/20 08:03:17;;;;;;;9.57;3.75;;;5.60;99.90;;;;;;5042331;28;20294;-64
2023/12/20 08:05:43;;;;;;;11.32;3.78;;;5.50;99.90;;;;;;5040780;28;20203;-65
2023/12/20 08:08:10;;;;;;;11.68;3.28;;;5.50;99.90;;;;;;5039764;28;20206;-64
2023/12/20 08:10:37;;;;;;;12.13;4.00;;;5.50;99.90;;;;;;5039570;28;20628;-65
2023/12/20 08:13:05;;;;;;;7.85;4.07;;;5.50;99.90;;;;;;5038489;28;20222;-64
2023/12/20 08:15:32;;;;;;;14.38;4.20;;;5.50;99.90;;;;;;5040685;28;20206;-64
2023/12/20 08:17:59;;;;;;;10.05;4.72;;;5.50;99.90;;;;;;5040245;28;20202;-65
2023/12/20 08:20:26;;;;;;;12.20;4.90;;;5.50;99.90;;;;;;5038524;28;20206;-62
2023/12/20 08:22:52;;;;;;;12.57;4.88;;;5.60;99.90;;;;;;5039911;28;20707;-64
2023/12/20 08:25:19;;;;;;;11.27;4.93;;;5.60;99.90;;;;;;5038520;28;20198;-62
2023/12/20 08:27:46;;;;;;;15.55;5.32;;;5.60;99.90;;;;;;5038237;28;20311;-63
2023/12/20 08:30:15;;;;;;;14.75;4.50;;;5.70;99.90;;;;;;5039047;28;20203;-65
2023/12/20 08:32:43;;;;;;;10.32;4.78;;;5.70;99.90;;;;;;5038383;28;20222;-64
2023/12/20 08:35:10;;;;;;;12.30;5.03;;;5.70;99.90;;;;;;5037443;28;20206;-64
2023/12/20 08:37:37;;;;;;;7.68;3.70;;;5.80;99.90;;;;;;5035427;28;20216;-64
2023/12/20 08:40:04;;;;;;;13.30;4.30;;;5.90;99.90;;;;;;5034882;28;20205;-63
2023/12/20 08:42:31;;;;;;;9.25;4.00;;;5.90;99.90;;;;;;5034267;28;20732;-63
2023/12/20 08:44:58;;;;;;;6.22;3.45;;;5.90;99.90;;;;;;5034719;28;20198;-64
2023/12/20 08:47:26;;;;;;;8.40;3.88;;;6.00;99.90;;;;;;5035478;28;20202;-63
2023/12/20 08:49:56;;;;;;;8.35;3.30;;;6.00;99.90;;;;;;5036174;28;20209;-65
2023/12/20 08:52:23;;;;;;;10.73;4.15;;;6.00;99.90;;;;;;5035347;28;20222;-64
2023/12/20 08:54:51;;;;;;;11.18;5.00;;;6.10;99.90;;;;;;5035710;28;20212;-65
2023/12/20 08:57:18;;;;;;;9.20;4.40;;;6.10;99.90;;;;;;5035990;28;20238;-65
2023/12/20 08:59:45;;;;;;;10.00;5.05;;;6.10;99.90;;;;;;5039761;28;20218;-65
2023/12/20 09:02:12;;;;;;;7.53;4.07;;;6.10;99.90;;;;;;5040623;28;20230;-65
2023/12/20 09:04:40;;;;;;;14.70;4.47;;;6.20;99.90;;;;;;5039311;28;20233;-63
2023/12/20 09:07:07;;;;;;;12.30;4.25;;;6.20;99.90;;;;;;5038626;28;20202;-65
2023/12/20 09:09:34;;;;;;;11.90;5.47;;;6.20;99.90;;;;;;5038390;28;20206;-65
2023/12/20 09:12:01;;;;;;;11.18;4.07;;;6.30;99.90;;;;;;5037310;28;20230;-64
2023/12/20 09:14:27;;;;;;;10.15;4.05;;;6.30;99.90;;;;;;5037928;28;20206;-64
2023/12/20 09:16:55;;;;;;;9.40;4.65;;;6.30;99.90;;;;;;5038723;28;20202;-65
2023/12/20 09:19:22;;;;;;;10.60;5.28;;;6.30;99.90;;;;;;5038303;28;20297;-65
2023/12/20 09:21:50;;;;;;;9.32;4.13;;;6.30;99.90;;;;;;5038932;28;20227;-63
2023/12/20 09:24:17;;;;;;;13.30;3.55;;;6.30;99.90;;;;;;5037889;28;20221;-64
2023/12/20 09:26:44;;;;;;;10.40;4.43;;;6.30;99.90;;;;;;5037061;28;20226;-63
2023/12/20 09:29:15;;;;;;;8.43;5.07;;;6.30;99.90;;;;;;5037753;28;20221;-64
2023/12/20 09:31:43;;;;;;;11.65;4.53;;;6.30;99.90;;;;;;5036406;28;20237;-64
2023/12/20 09:34:10;;;;;;;9.43;4.43;;;6.30;99.90;;;;;;5037077;28;20242;-64
2023/12/20 09:36:38;;;;;;;9.70;3.83;;;6.30;99.90;;;;;;5038228;28;20246;-64
2023/12/20 09:39:06;;;;;;;21.65;5.15;;;6.40;99.90;;;;;;5037844;28;20238;-63
2023/12/20 09:41:38;;;;;;;12.23;3.90;;;6.40;99.90;;;;;;5037856;28;20222;-63
2023/12/20 09:44:05;;;;;;;13.50;4.57;;;6.40;99.90;;;;;;5037612;28;20649;-62
2023/12/20 09:46:35;;;;;;;7.55;4.30;;;6.40;99.90;;;;;;5036662;28;20636;-65
2023/12/20 09:49:02;;;;;;;11.07;3.63;;;6.50;99.90;;;;;;5036365;28;20256;-64
2023/12/20 09:51:31;;;;;;;10.32;4.15;;;6.50;99.90;;;;;;5036687;28;20219;-65
2023/12/20 09:53:59;;;;;;;13.07;3.55;;;6.50;99.90;;;;;;5037000;28;20218;-64
2023/12/20 09:56:29;;;;;;;9.25;3.47;;;6.60;99.90;;;;;;5037857;28;20237;-64
2023/12/20 09:58:55;;;;;;;8.63;3.40;;;6.60;99.90;;;;;;5037668;28;20205;-64
2023/12/20 10:01:23;;;;;;;11.63;3.97;;;6.70;99.90;;;;;;5037276;28;20232;-64
2023/12/20 10:03:52;;;;;;;6.50;2.90;;;6.80;99.90;;;;;;5037622;28;20195;-64
2023/12/20 10:06:18;;;;;;;6.03;3.75;;;6.80;99.90;;;;;;5037199;28;20202;-64
2023/12/20 10:08:45;;;;;;;10.85;3.67;;;6.80;99.90;;;;;;5037364;28;20210;-64
2023/12/20 10:11:13;;;;;;;7.15;3.10;;;6.80;99.90;;;;;;5036950;28;20644;-65
2023/12/20 10:13:42;;;;;;;5.15;3.45;;;7.00;99.90;;;;;;5037914;28;20284;-65
2023/12/20 10:16:09;;;;;;;18.00;4.40;;;7.10;99.90;;;;;;5037580;28;20302;-64
2023/12/20 10:18:35;;;;;;;9.70;3.92;;;7.10;99.90;;;;;;5037073;28;20221;-64
2023/12/20 10:21:03;;;;;;;8.50;3.30;;;7.10;99.90;;;;;;5038058;28;20229;-64
2023/12/20 10:23:30;;;;;;;10.38;2.90;;;7.10;99.90;;;;;;5038506;28;20660;-64
2023/12/20 10:25:58;;;;;;;10.50;3.50;;;7.10;99.90;;;;;;5037982;28;20293;-67
2023/12/20 10:28:27;;;;;;;8.27;2.95;;;7.10;99.90;;;;;;5038528;28;20560;-64
2023/12/20 10:30:56;;;;;;;10.05;3.58;;;7.20;99.90;;;;;;5037650;28;20198;-64
2023/12/20 10:33:25;;;;;;;7.00;2.85;;;7.20;99.90;;;;;;5036970;28;20360;-64
2023/12/20 10:35:53;;;;;;;10.10;3.42;;;7.20;99.90;;;;;;5037651;28;20261;-63
2023/12/20 10:38:20;;;;;;;6.47;2.70;;;7.20;99.90;;;;;;5035805;28;20264;-61
2023/12/20 10:40:47;;;;;;;9.30;3.40;;;7.30;99.90;;;;;;5035557;28;20292;-63
2023/12/20 10:43:15;;;;;;;14.88;3.50;;;7.20;99.90;;;;;;5035776;28;20194;-63
2023/12/20 10:45:43;;;;;;;9.48;3.83;;;7.20;99.90;;;;;;5035844;28;20206;-65
2023/12/20 10:48:12;;;;;;;6.50;3.47;;;7.20;99.90;;;;;;5035423;28;20737;-64
2023/12/20 10:50:39;;;;;;;5.70;3.30;;;7.30;99.90;;;;;;5036642;28;20248;-64
2023/12/20 10:53:08;;;;;;;12.02;3.00;;;7.20;99.90;;;;;;5036129;28;20349;-64
2023/12/20 10:55:35;;;;;;;14.48;3.75;;;7.20;99.90;;;;;;5036663;28;20248;-65
2023/12/20 10:58:07;;;;;;;6.00;3.53;;;7.20;99.90;;;;;;5040206;28;20225;-66
2023/12/20 11:00:39;;;;;;;10.25;3.55;;;7.10;99.90;;;;;;5042621;28;20222;-66
2023/12/20 11:03:09;;;;;;;7.70;3.70;;;7.00;99.90;;;;;;5043998;28;20227;-66
2023/12/20 11:05:45;;;;;;;7.93;3.10;;;7.00;99.90;;;;;;5041078;28;20228;-65
2023/12/20 11:08:17;;;;;;;4.05;3.10;;;7.00;99.90;;;;;;5039573;28;20194;-64
2023/12/20 11:10:51;;;;;;;7.75;2.80;;;7.00;99.90;;;;;;5039530;28;20633;-67
2023/12/20 11:13:23;;;;;;;7.10;3.22;;;7.00;99.90;;;;;;5039611;28;20298;-64
2023/12/20 11:15:50;;;;;;;7.57;3.55;;;7.10;99.90;;;;;;5040578;28;20194;-65
2023/12/20 11:18:17;;;;;;;7.45;2.85;;;7.10;99.90;;;;;;5038926;28;20212;-66
2023/12/20 11:20:45;;;;;;;4.80;2.65;;;7.00;99.90;;;;;;5037756;28;20198;-66
2023/12/20 11:23:12;;;;;;;9.02;2.70;;;7.00;99.90;;;;;;5038068;28;20225;-66
2023/12/20 11:25:49;;;;;;;5.18;3.30;;;7.00;99.90;;;;;;5036870;28;20226;-65
2023/12/20 11:28:17;;;;;;;6.05;2.97;;;7.00;99.90;;;;;;5038489;28;20620;-66
2023/12/20 11:30:48;;;;;;;6.80;3.33;;;6.90;99.90;;;;;;5036961;28;20198;-64
2023/12/20 11:33:15;;;;;;;5.80;3.08;;;6.90;99.90;;;;;;5038276;28;20207;-66
2023/12/20 11:35:42;;;;;;;8.05;3.35;;;6.80;99.90;;;;;;5038182;28;20214;-65
2023/12/20 11:38:11;;;;;;;7.53;3.50;;;6.70;99.90;;;;;;5040065;28;20202;-66
2023/12/20 11:40:38;;;;;;;7.28;3.83;;;6.70;99.90;;;;;;5040611;28;20202;-66
2023/12/20 11:43:06;;;;;;;7.53;4.45;;;6.60;99.90;;;;;;5038163;28;20687;-67
2023/12/20 11:45:33;;;;;;;8.88;3.92;;;6.50;99.90;;;;;;5037319;28;20206;-64
2023/12/20 11:48:01;;;;;;;8.27;2.53;;;6.50;99.90;;;;;;5037623;28;20198;-66
2023/12/20 11:50:29;;;;;;;8.05;2.53;;;6.30;99.90;;;;;;5037796;28;20252;-67
2023/12/20 11:52:56;;;;;;;7.25;2.40;;;6.30;99.90;;;;;;5037682;28;20264;-67
2023/12/20 11:55:25;;;;;;;2.95;1.67;;;6.10;99.90;;;;;;5039540;28;20210;-66
2023/12/20 11:57:52;;;;;;;13.70;3.00;;;6.00;99.90;;;;;;5038228;28;20281;-67
2023/12/20 12:00:20;;;;;;;2.83;1.67;;;5.80;99.90;;;;;;5037757;28;20268;-66
2023/12/20 12:02:57;;;;;;;6.85;1.45;;;5.70;99.90;;;;;;5037770;28;20234;-67
2023/12/20 12:05:23;;;;;;;2.30;1.00;;;5.60;99.90;;;;;;5036505;28;20229;-67
2023/12/20 12:07:50;;;;;;;2.97;1.30;;;5.50;99.90;;;;;;5037689;28;20206;-67
2023/12/20 12:10:17;;;;;;;2.97;1.20;;;5.40;99.90;;;;;;5038041;28;20202;-67
2023/12/20 12:12:45;;;;;;;4.75;1.73;;;5.40;99.90;;;;;;5039538;28;20218;-66
2023/12/20 12:15:12;;;;;;;1.02;0.95;;;5.40;99.90;;;;;;5038578;28;20759;-67
2023/12/20 12:17:39;;;;;;;2.65;0.93;;;5.30;99.90;;;;;;5039978;28;20255;-67
2023/12/20 12:20:08;;;;;;;1.23;0.70;;;5.30;99.90;;;;;;5037875;28;20202;-67
2023/12/20 12:22:35;;;;;;;2.10;1.13;;;5.40;99.90;;;;;;5038486;28;20254;-68
2023/12/20 12:25:11;;;;;;;1.10;0.85;;;5.40;99.90;;;;;;5037103;28;20202;-65
2023/12/20 12:27:38;;;;;;;2.53;1.30;;;5.40;99.90;;;;;;5038074;28;20194;-67
2023/12/20 12:30:08;;;;;;;2.08;1.00;;;5.40;99.90;;;;;;5037053;28;20236;-72
2023/12/20 12:32:35;;;;;;;1.85;0.70;;;5.40;99.90;;;;;;5036366;28;20222;-67
2023/12/20 12:35:03;;;;;;;2.10;1.63;;;5.40;99.90;;;;;;5038957;28;20254;-64
2023/12/20 12:37:30;;;;;;;3.58;1.23;;;5.40;99.90;;;;;;5038788;28;20555;-66
2023/12/20 12:39:58;;;;;;;3.40;1.50;;;5.40;99.90;;;;;;5039470;28;20209;-67
2023/12/20 12:42:28;;;;;;;1.60;0.85;;;5.40;99.90;;;;;;5039259;28;20313;-67
2023/12/20 12:44:55;;;;;;;3.30;1.40;;;5.40;99.90;;;;;;5040795;28;20183;-67
2023/12/20 12:47:23;;;;;;;3.25;1.27;;;5.40;99.90;;;;;;5041359;28;20548;-67
2023/12/20 12:49:52;;;;;;;7.53;1.83;;;5.30;99.90;;;;;;5040406;28;20491;-66
2023/12/20 12:52:19;;;;;;;4.72;1.20;;;5.30;99.90;;;;;;5039168;28;20218;-66
2023/12/20 12:54:46;;;;;;;5.97;2.65;;;5.20;99.90;;;;;;5040513;28;20224;-66
2023/12/20 12:57:15;;;;;;;2.58;0.98;;;5.30;99.90;;;;;;5039032;28;20240;-67